Time;durP1;ratioP1;P1;durP2;ratioP2;P2;SDS_P1;SDS_P2;PMS_P1;PMS_P2;Temp;Humidity;BMP_temperature;BMP_pressure;BME280_temperature;BME280_humidity;BME280_pressure;Samples;Min_cycle;Max_cycle;Signal;HPM_P1;HPM_P2
2023/03/15 00:01:17;;;;;;;10.32;2.50;;;;;;;6.53;70.04;99599.09;5009708;28;20057;-87
2023/03/15 00:03:45;;;;;;;9.57;2.50;;;;;;;6.61;69.60;99602.94;4987183;28;20496;-88
2023/03/15 00:06:12;;;;;;;8.52;2.83;;;;;;;6.64;70.11;99608.84;4997432;28;20063;-86
2023/03/15 00:08:39;;;;;;;12.00;2.50;;;;;;;6.64;68.83;99613.25;5011779;28;20049;-86
2023/03/15 00:11:06;;;;;;;9.18;2.90;;;;;;;6.58;69.86;99626.94;5009765;28;20081;-87
2023/03/15 00:13:33;;;;;;;9.00;2.80;;;;;;;6.65;68.71;99623.72;5027461;28;20037;-87
2023/03/15 00:16:02;;;;;;;14.57;3.78;;;;;;;6.61;69.63;99624.06;5023681;28;20080;-87
2023/03/15 00:18:29;;;;;;;8.65;2.60;;;;;;;6.55;73.15;99629.81;5016469;28;20098;-87
2023/03/15 00:20:56;;;;;;;8.93;2.47;;;;;;;6.46;74.83;99628.69;5021793;28;20552;-87
2023/03/15 00:23:23;;;;;;;10.88;3.05;;;;;;;6.47;75.00;99635.66;4974324;28;20119;-86
2023/03/15 00:25:51;;;;;;;8.88;2.97;;;;;;;6.54;74.01;99642.16;4989928;28;20041;-87
2023/03/15 00:28:18;;;;;;;16.08;3.53;;;;;;;6.60;73.39;99643.50;5011562;28;20049;-86
2023/03/15 00:30:45;;;;;;;12.02;2.80;;;;;;;6.52;73.54;99652.81;4998025;28;20049;-87
2023/03/15 00:33:13;;;;;;;14.75;3.13;;;;;;;6.59;73.50;99653.22;4993791;28;20049;-87
2023/03/15 00:35:42;;;;;;;8.48;3.03;;;;;;;6.54;74.36;99650.06;4998651;28;20083;-87
2023/03/15 00:38:09;;;;;;;15.45;3.88;;;;;;;6.53;74.37;99649.22;5015155;28;20041;-87
2023/03/15 00:40:36;;;;;;;12.68;3.40;;;;;;;6.57;73.67;99649.00;4996305;28;20098;-87
2023/03/15 00:43:04;;;;;;;9.13;2.92;;;;;;;6.53;73.98;99662.41;4971810;28;20045;-87
2023/03/15 00:45:31;;;;;;;13.65;3.50;;;;;;;6.49;74.27;99662.75;5019051;28;20041;-87
2023/03/15 00:47:58;;;;;;;7.32;2.33;;;;;;;6.47;73.57;99665.50;5018814;28;20050;-83
2023/03/15 00:50:25;;;;;;;9.25;2.72;;;;;;;6.48;73.44;99669.81;4993414;28;20045;-87
2023/03/15 00:52:51;;;;;;;12.95;3.95;;;;;;;6.55;72.69;99667.56;5006305;28;20104;-87
2023/03/15 00:55:19;;;;;;;8.98;2.47;;;;;;;6.46;72.28;99666.47;5008132;28;20053;-87
2023/03/15 00:57:47;;;;;;;7.63;3.03;;;;;;;6.40;73.09;99666.06;5009079;28;20034;-87
2023/03/15 01:00:19;;;;;;;10.45;3.13;;;;;;;6.43;73.06;99669.31;5008182;28;20061;-87
2023/03/15 01:02:46;;;;;;;4.75;2.40;;;;;;;6.54;72.35;99676.44;4994479;28;20046;-87
2023/03/15 01:05:14;;;;;;;15.63;2.72;;;;;;;6.52;71.94;99683.63;4977995;28;20071;-87
2023/03/15 01:07:41;;;;;;;11.38;3.05;;;;;;;6.46;72.31;99681.44;5020963;28;20061;-86
2023/03/15 01:10:08;;;;;;;10.77;3.65;;;;;;;6.32;72.21;99681.63;4994590;28;20038;-86
2023/03/15 01:12:34;;;;;;;10.13;3.38;;;;;;;6.22;73.05;99684.91;5007224;28;20559;-87
2023/03/15 01:15:03;;;;;;;8.98;3.08;;;;;;;6.25;72.82;99694.41;5002334;28;20053;-85
2023/03/15 01:17:30;;;;;;;9.65;4.22;;;;;;;6.20;72.82;99689.47;5007891;28;20045;-87
2023/03/15 01:19:58;;;;;;;10.95;3.33;;;;;;;6.12;73.04;99699.72;4990758;28;20103;-86
2023/03/15 01:22:25;;;;;;;10.18;3.70;;;;;;;6.11;73.33;99702.47;5000549;28;20477;-87
2023/03/15 01:24:52;;;;;;;16.77;4.68;;;;;;;6.04;73.31;99700.28;4990815;28;20076;-87
2023/03/15 01:27:19;;;;;;;15.23;4.63;;;;;;;6.02;72.99;99701.34;4979159;28;20496;-86
2023/03/15 01:29:46;;;;;;;9.70;5.50;;;;;;;6.02;72.90;99709.25;5011336;28;20111;-86
2023/03/15 01:32:13;;;;;;;14.85;5.38;;;;;;;6.06;72.94;99716.00;5028799;28;20124;-83
2023/03/15 01:34:42;;;;;;;14.40;4.30;;;;;;;5.98;73.10;99718.31;4990558;28;20049;-86
2023/03/15 01:37:13;;;;;;;13.50;4.82;;;;;;;5.90;73.33;99724.09;5007650;28;20045;-86
2023/03/15 01:39:42;;;;;;;14.85;4.78;;;;;;;5.81;73.33;99717.69;4994137;28;20045;-86
2023/03/15 01:42:10;;;;;;;11.38;5.50;;;;;;;5.82;73.32;99731.69;4994858;28;20484;-86
2023/03/15 01:44:49;;;;;;;18.13;5.90;;;;;;;5.82;71.88;99723.81;4978455;28;20125;-86
2023/03/15 01:47:16;;;;;;;16.38;6.07;;;;;;;5.91;72.52;99732.88;4971609;28;20052;-86
2023/03/15 01:49:46;;;;;;;14.07;4.88;;;;;;;5.90;72.49;99726.72;5007853;28;20567;-86
2023/03/15 01:52:16;;;;;;;15.57;5.55;;;;;;;5.87;73.08;99734.84;5008187;28;20045;-86
2023/03/15 01:54:53;;;;;;;20.48;5.95;;;;;;;5.77;73.45;99742.56;4973696;28;20053;-86
2023/03/15 01:57:36;;;;;;;17.40;5.35;;;;;;;5.66;73.64;99738.06;4954194;28;20065;-86
2023/03/15 02:00:10;;;;;;;17.80;5.10;;;;;;;5.76;73.32;99735.63;4966234;28;20049;-86
2023/03/15 02:02:58;;;;;;;14.45;5.13;;;;;;;5.76;73.26;99735.63;4957430;28;20059;-87
2023/03/15 02:05:31;;;;;;;17.70;5.53;;;;;;;5.56;73.30;99741.44;4974812;28;20052;-87
2023/03/15 02:08:00;;;;;;;14.30;5.07;;;;;;;5.51;73.11;99744.38;4997627;28;20456;-86
2023/03/15 02:10:41;;;;;;;15.88;4.40;;;;;;;5.47;73.07;99753.47;5001585;28;20068;-86
2023/03/15 02:13:11;;;;;;;14.70;5.38;;;;;;;5.45;73.42;99747.44;4965193;28;20054;-87
2023/03/15 02:15:38;;;;;;;10.18;4.60;;;;;;;5.42;73.08;99756.41;4992821;28;20064;-87
2023/03/15 02:18:05;;;;;;;18.88;5.18;;;;;;;5.34;73.69;99752.59;5009678;28;20111;-87
2023/03/15 02:20:40;;;;;;;12.68;4.72;;;;;;;5.24;73.61;99744.50;5009631;28;20045;-87
2023/03/15 02:23:16;;;;;;;11.43;4.20;;;;;;;5.19;73.47;99749.19;4992029;28;20506;-86
2023/03/15 02:26:14;;;;;;;17.55;4.57;;;;;;;5.12;73.80;99750.59;4971524;28;20042;-87
2023/03/15 02:28:41;;;;;;;9.13;3.95;;;;;;;5.22;73.76;99749.03;4976760;28;20056;-87
2023/03/15 02:31:08;;;;;;;11.65;4.35;;;;;;;5.16;73.93;99746.78;5007497;28;20516;-88
2023/03/15 02:33:46;;;;;;;15.18;3.80;;;;;;;5.12;73.42;99754.06;5013213;28;20041;-86
2023/03/15 02:36:19;;;;;;;14.13;4.18;;;;;;;5.12;73.44;99767.22;4972485;28;20045;-87
2023/03/15 02:38:47;;;;;;;;;;;;;;;4.97;73.98;99769.06;4981574;28;20437;-88
2023/03/15 02:41:17;;;;;;;13.48;3.95;;;;;;;5.10;73.73;99774.38;4990184;28;19976;-87
2023/03/15 02:43:45;;;;;;;12.77;3.65;;;;;;;4.98;74.28;99778.63;4982198;28;20041;-86
2023/03/15 02:46:12;;;;;;;11.13;3.88;;;;;;;5.05;73.97;99779.09;5000015;28;20612;-86
2023/03/15 02:48:41;;;;;;;12.32;4.30;;;;;;;5.08;73.86;99784.13;4990032;28;20053;-86
2023/03/15 02:51:16;;;;;;;13.30;3.75;;;;;;;4.98;74.33;99794.44;5008472;28;20047;-86
2023/03/15 02:53:43;;;;;;;12.25;4.13;;;;;;;4.94;74.50;99792.97;4941673;28;20050;-87
2023/03/15 02:56:09;;;;;;;10.48;4.07;;;;;;;4.98;74.07;99804.97;4985790;28;20449;-87
2023/03/15 02:58:36;;;;;;;11.68;4.63;;;;;;;4.93;74.42;99812.31;4973217;28;20133;-87
2023/03/15 03:01:03;;;;;;;8.13;3.03;;;;;;;4.89;74.13;99829.25;4954181;28;20046;-86
2023/03/15 03:03:30;;;;;;;10.90;4.05;;;;;;;4.88;74.06;99835.44;4949549;28;20049;-86
2023/03/15 03:05:59;;;;;;;12.00;3.53;;;;;;;4.92;73.49;99836.09;4953153;28;20608;-86
2023/03/15 03:08:26;;;;;;;8.73;2.50;;;;;;;4.84;73.58;99828.72;4969014;28;20092;-86
2023/03/15 03:10:53;;;;;;;11.00;2.67;;;;;;;5.06;72.94;99829.94;4967568;28;20206;-86
2023/03/15 03:13:20;;;;;;;12.68;3.25;;;;;;;5.07;72.83;99834.28;4938318;28;20042;-87
2023/03/15 03:15:57;;;;;;;12.43;3.47;;;;;;;5.16;73.03;99847.66;4954426;28;20167;-87
2023/03/15 03:18:27;;;;;;;12.27;3.47;;;;;;;5.18;72.51;99848.41;4956870;28;20053;-87
2023/03/15 03:20:56;;;;;;;10.43;3.45;;;;;;;5.19;73.10;99859.75;4973272;28;20049;-86
2023/03/15 03:23:25;;;;;;;7.88;2.75;;;;;;;5.08;72.43;99867.53;4959611;28;20035;-87
2023/03/15 03:25:52;;;;;;;10.48;3.67;;;;;;;5.07;72.82;99873.75;5015241;28;20496;-86
2023/03/15 03:28:22;;;;;;;9.07;2.72;;;;;;;5.01;72.43;99867.06;5010693;28;20433;-86
2023/03/15 03:30:50;;;;;;;9.45;3.63;;;;;;;4.97;72.98;99876.97;4995624;28;20046;-86
2023/03/15 03:33:18;;;;;;;8.82;2.55;;;;;;;4.91;73.50;99887.03;5038871;28;20480;-86
2023/03/15 03:35:46;;;;;;;5.95;2.90;;;;;;;4.93;73.39;99888.63;4992553;28;20038;-86
2023/03/15 03:38:13;;;;;;;6.53;2.72;;;;;;;4.87;73.51;99881.13;5030623;28;20052;-86
2023/03/15 03:40:44;;;;;;;10.35;2.40;;;;;;;4.79;73.57;99888.69;5020546;28;20423;-86
2023/03/15 03:43:11;;;;;;;8.23;2.45;;;;;;;4.82;73.08;99890.25;5008612;28;20042;-86
2023/03/15 03:45:38;;;;;;;8.32;3.05;;;;;;;4.75;72.97;99890.63;5012821;28;20053;-86
2023/03/15 03:48:07;;;;;;;8.13;2.97;;;;;;;4.70;73.34;99892.72;4986815;28;20061;-86
2023/03/15 03:50:34;;;;;;;9.32;3.45;;;;;;;4.78;73.26;99894.84;5009689;28;20042;-87
2023/03/15 03:53:01;;;;;;;16.13;3.85;;;;;;;4.71;73.24;99893.59;5031654;28;20445;-84
2023/03/15 03:55:32;;;;;;;14.18;3.50;;;;;;;4.74;73.37;99898.66;5005001;28;20663;-87
2023/03/15 03:57:59;;;;;;;9.02;2.22;;;;;;;4.69;73.99;99908.63;5022771;28;20049;-86
2023/03/15 04:00:40;;;;;;;8.98;3.78;;;;;;;4.99;72.92;99913.72;4992074;28;20052;-87
2023/03/15 04:03:08;;;;;;;9.38;3.33;;;;;;;5.02;72.82;99912.69;4991914;28;20445;-87
2023/03/15 04:05:37;;;;;;;7.78;3.13;;;;;;;5.00;72.97;99912.75;5010395;28;20515;-87
2023/03/15 04:08:04;;;;;;;11.57;4.50;;;;;;;5.16;72.24;99907.34;5034281;28;20054;-86
2023/03/15 04:10:36;;;;;;;6.57;3.70;;;;;;;5.12;72.55;99909.34;5025912;28;20068;-87
2023/03/15 04:13:03;;;;;;;13.15;3.42;;;;;;;5.16;71.94;99920.50;5014959;28;20045;-86
2023/03/15 04:15:30;;;;;;;13.23;4.50;;;;;;;5.18;71.76;99924.72;5025175;28;20050;-87
2023/03/15 04:17:57;;;;;;;7.60;4.03;;;;;;;5.13;72.17;99928.59;5007253;28;20049;-86
2023/03/15 04:20:33;;;;;;;8.60;3.90;;;;;;;5.08;72.26;99939.44;5026983;28;20042;-86
2023/03/15 04:23:01;;;;;;;8.45;3.35;;;;;;;5.14;71.99;99932.91;5010464;28;20456;-88
2023/03/15 04:25:35;;;;;;;12.88;4.30;;;;;;;4.99;72.65;99945.31;5023438;28;20056;-86
2023/03/15 04:28:30;;;;;;;24.20;6.47;;;;;;;4.97;72.67;99950.66;4972976;28;20179;-87
2023/03/15 04:31:25;;;;;;;19.23;6.03;;;;;;;4.82;73.09;99946.34;4946560;28;20122;-86
2023/03/15 04:34:28;;;;;;;10.55;3.83;;;;;;;4.79;72.85;99960.53;4953000;28;20046;-85
2023/03/15 04:37:18;;;;;;;7.97;3.38;;;;;;;4.70;73.42;99950.59;4975001;28;20037;-86
2023/03/15 04:40:13;;;;;;;16.27;4.68;;;;;;;4.66;73.21;99958.78;5006818;28;20045;-86
2023/03/15 04:43:02;;;;;;;12.90;4.53;;;;;;;4.59;73.30;99952.22;4992937;28;20102;-85
2023/03/15 04:45:35;;;;;;;11.35;5.65;;;;;;;4.61;73.07;99952.97;5022832;28;20047;-86
2023/03/15 04:48:23;;;;;;;17.60;5.82;;;;;;;4.70;72.95;99952.38;5000654;28;20472;-87
2023/03/15 04:51:25;;;;;;;14.65;6.25;;;;;;;4.62;72.99;99944.97;4950055;28;20053;-85
2023/03/15 04:54:06;;;;;;;16.85;6.60;;;;;;;4.60;73.08;99949.47;5001755;28;20048;-86
2023/03/15 04:56:52;;;;;;;24.15;8.68;;;;;;;4.54;73.38;99948.06;5007939;28;20530;-87
2023/03/15 04:59:39;;;;;;;24.50;8.60;;;;;;;4.40;73.57;99945.47;4950487;28;20057;-88
2023/03/15 05:02:24;;;;;;;24.67;7.57;;;;;;;4.39;73.74;99958.69;4972745;28;20046;-87
2023/03/15 05:05:02;;;;;;;14.48;6.85;;;;;;;4.30;73.84;99945.16;4971535;28;20038;-92
2023/03/15 05:08:01;;;;;;;12.77;6.22;;;;;;;4.27;73.76;99949.75;4901345;28;20409;-91
2023/03/15 05:10:56;;;;;;;13.32;5.68;;;;;;;4.16;74.02;99952.19;4881330;28;20526;-81
2023/03/15 05:13:29;;;;;;;15.18;5.82;;;;;;;4.17;74.31;99956.50;4989532;28;20057;-82
2023/03/15 05:16:05;;;;;;;13.10;4.85;;;;;;;4.16;73.74;99962.69;4942524;28;20129;-81
2023/03/15 05:18:40;;;;;;;11.55;5.03;;;;;;;4.06;74.14;99957.97;4945052;28;20426;-82
2023/03/15 05:21:25;;;;;;;12.98;4.80;;;;;;;4.01;74.39;99973.19;4914718;28;20167;-82
2023/03/15 05:24:04;;;;;;;9.80;4.30;;;;;;;4.00;74.36;99963.63;4932393;28;20061;-82
2023/03/15 05:26:48;;;;;;;13.82;4.22;;;;;;;3.96;74.29;99975.22;4945357;28;20130;-81
2023/03/15 05:29:31;;;;;;;10.80;3.88;;;;;;;3.97;74.37;99974.31;4949227;28;20054;-81
2023/03/15 05:32:18;;;;;;;15.95;3.75;;;;;;;3.98;74.30;99978.63;4926758;28;20395;-81
2023/03/15 05:35:05;;;;;;;11.63;4.07;;;;;;;3.98;73.72;99973.38;4941311;28;20042;-81
2023/03/15 05:37:58;;;;;;;14.15;4.97;;;;;;;3.95;74.19;99980.59;4921981;28;20180;-81
2023/03/15 05:40:43;;;;;;;12.48;4.78;;;;;;;3.99;73.81;99982.09;4981998;28;20058;-81
2023/03/15 05:43:32;;;;;;;9.88;3.70;;;;;;;3.97;74.19;99991.84;4980434;28;20111;-81
2023/03/15 05:46:17;;;;;;;13.05;4.40;;;;;;;3.88;74.79;99985.34;4969954;28;24932;-81
2023/03/15 05:49:11;;;;;;;11.15;4.18;;;;;;;3.80;75.01;99993.69;4949231;28;20057;-81
2023/03/15 05:51:48;;;;;;;14.90;4.20;;;;;;;3.91;74.33;100003.56;4968492;28;20504;-81
2023/03/15 05:54:35;;;;;;;12.77;4.47;;;;;;;3.92;74.69;99995.59;4958415;28;20123;-81
2023/03/15 05:57:20;;;;;;;26.60;8.18;;;;;;;3.87;74.87;99999.44;5007042;28;20194;-81
2023/03/15 06:00:04;;;;;;;41.13;14.10;;;;;;;3.83;74.39;100004.00;4993415;28;20060;-81
2023/03/15 06:02:41;;;;;;;56.15;18.55;;;;;;;3.88;74.79;100001.09;5000793;28;20056;-81
2023/03/15 06:05:37;;;;;;;45.03;16.23;;;;;;;3.89;75.49;100000.16;4961324;28;20042;-81
2023/03/15 06:08:08;;;;;;;49.05;15.88;;;;;;;3.93;75.20;99996.44;4990948;28;20100;-81
2023/03/15 06:10:40;;;;;;;18.83;7.15;;;;;;;3.94;75.46;100000.75;4979131;28;20046;-81
2023/03/15 06:13:09;;;;;;;15.90;7.20;;;;;;;3.96;75.79;100000.66;5009488;28;20431;-81
2023/03/15 06:15:36;;;;;;;14.38;5.03;;;;;;;4.05;75.01;99998.34;5008215;28;20045;-81
2023/03/15 06:18:04;;;;;;;19.30;6.50;;;;;;;4.02;75.29;100006.41;4989909;28;20080;-81
2023/03/15 06:20:31;;;;;;;17.42;7.95;;;;;;;3.94;75.73;100018.28;5008873;28;20065;-81
2023/03/15 06:23:04;;;;;;;27.92;13.38;;;;;;;3.88;75.74;100022.13;4972949;28;20041;-81
2023/03/15 06:25:39;;;;;;;45.40;16.60;;;;;;;4.01;75.56;100027.50;5006933;28;20042;-81
2023/03/15 06:28:06;;;;;;;21.58;9.30;;;;;;;4.01;76.23;100027.50;5019000;28;20052;-81
2023/03/15 06:30:34;;;;;;;18.05;6.82;;;;;;;4.12;76.12;100027.72;5006353;28;20046;-81
2023/03/15 06:33:01;;;;;;;23.23;7.78;;;;;;;4.14;76.02;100026.69;5009956;28;20046;-81
2023/03/15 06:35:29;;;;;;;18.30;7.00;;;;;;;4.20;76.23;100037.78;4970522;28;20045;-81
2023/03/15 06:37:56;;;;;;;13.98;7.63;;;;;;;4.18;76.88;100050.19;4973535;28;20124;-81
2023/03/15 06:40:23;;;;;;;16.65;7.00;;;;;;;4.21;75.84;100050.84;4993599;28;20520;-81
2023/03/15 06:42:50;;;;;;;17.08;6.68;;;;;;;4.31;75.84;100035.38;5003179;28;20058;-81
2023/03/15 06:45:19;;;;;;;16.50;6.43;;;;;;;4.32;76.99;100035.28;5007127;28;20053;-81
2023/03/15 06:47:46;;;;;;;19.85;6.75;;;;;;;4.50;76.43;100041.25;4994596;28;20038;-81
2023/03/15 06:50:15;;;;;;;18.55;7.07;;;;;;;4.60;76.46;100041.50;5009632;28;20042;-81
2023/03/15 06:52:42;;;;;;;20.08;7.00;;;;;;;4.55;77.74;100046.22;5000388;28;20057;-81
2023/03/15 06:55:11;;;;;;;20.60;7.25;;;;;;;4.60;77.26;100040.69;5015266;28;20048;-81
2023/03/15 06:57:39;;;;;;;14.00;6.15;;;;;;;4.65;76.36;100041.25;5006166;28;20045;-81
2023/03/15 07:00:10;;;;;;;21.98;7.68;;;;;;;4.70;77.49;100045.28;5011841;28;20046;-82
2023/03/15 07:02:37;;;;;;;15.93;6.93;;;;;;;4.70;77.00;100050.53;4970529;28;20103;-81
2023/03/15 07:05:04;;;;;;;18.85;6.97;;;;;;;4.84;76.67;100046.25;5017856;28;20058;-81
2023/03/15 07:07:31;;;;;;;23.70;8.95;;;;;;;4.83;77.27;100039.28;4991940;28;20053;-81
2023/03/15 07:09:58;;;;;;;16.02;7.32;;;;;;;4.84;77.04;100043.63;5019785;28;20053;-81
2023/03/15 07:12:24;;;;;;;22.30;7.10;;;;;;;4.96;77.08;100040.19;4972577;28;20132;-81
2023/03/15 07:14:51;;;;;;;15.45;6.38;;;;;;;5.02;77.29;100045.09;5025084;28;20041;-81
2023/03/15 07:17:18;;;;;;;16.35;7.10;;;;;;;5.10;76.95;100055.16;5009145;28;20160;-81
2023/03/15 07:19:45;;;;;;;21.58;7.63;;;;;;;5.06;77.08;100058.91;4982880;28;20073;-81
2023/03/15 07:22:21;;;;;;;18.52;6.30;;;;;;;5.14;75.50;100061.91;4976349;28;20087;-81
2023/03/15 07:24:48;;;;;;;12.10;6.10;;;;;;;5.14;77.27;100057.50;4990904;28;20524;-81
2023/03/15 07:27:15;;;;;;;18.55;7.10;;;;;;;5.23;76.47;100066.59;5020204;28;20041;-82
2023/03/15 07:29:45;;;;;;;15.15;6.15;;;;;;;5.26;76.62;100073.47;5020789;28;20042;-81
2023/03/15 07:32:11;;;;;;;17.95;6.10;;;;;;;5.36;76.57;100067.50;4979900;28;20100;-82
2023/03/15 07:34:38;;;;;;;15.98;6.78;;;;;;;5.47;76.44;100069.50;5005413;28;20048;-82
2023/03/15 07:37:05;;;;;;;11.48;5.05;;;;;;;5.55;75.37;100069.00;5016844;28;20408;-82
2023/03/15 07:39:32;;;;;;;14.63;5.05;;;;;;;5.63;74.94;100083.38;4986064;28;20128;-81
2023/03/15 07:41:58;;;;;;;22.33;5.68;;;;;;;5.63;74.76;100070.19;4997634;28;20551;-82
2023/03/15 07:44:30;;;;;;;11.67;4.77;;;;;;;5.69;74.81;100070.75;4983466;28;20042;-82
2023/03/15 07:46:57;;;;;;;22.27;6.05;;;;;;;5.70;75.25;100070.66;5000147;28;20055;-82
2023/03/15 07:49:24;;;;;;;18.15;5.82;;;;;;;5.74;74.24;100068.66;4972930;28;20054;-82
2023/03/15 07:51:51;;;;;;;13.77;5.18;;;;;;;5.77;74.29;100077.19;5024761;28;20382;-82
2023/03/15 07:54:19;;;;;;;13.20;5.22;;;;;;;5.81;73.71;100072.59;4974588;28;20052;-82
2023/03/15 07:56:45;;;;;;;12.85;4.90;;;;;;;5.82;72.82;100075.09;5003253;28;20567;-82
2023/03/15 07:59:12;;;;;;;14.02;4.63;;;;;;;5.87;72.72;100080.09;5010433;28;20436;-82
2023/03/15 08:01:39;;;;;;;12.18;4.30;;;;;;;5.88;72.02;100077.34;5022154;28;20065;-82
2023/03/15 08:04:06;;;;;;;14.07;4.43;;;;;;;5.90;71.93;100082.50;5011946;28;20070;-82
2023/03/15 08:06:33;;;;;;;21.58;5.95;;;;;;;5.98;72.13;100089.94;5023800;28;20045;-82
2023/03/15 08:09:03;;;;;;;10.15;4.20;;;;;;;5.99;71.96;100076.69;5006184;28;20050;-82
2023/03/15 08:11:29;;;;;;;16.50;4.55;;;;;;;6.06;71.89;100087.69;5017250;28;20052;-82
2023/03/15 08:13:56;;;;;;;24.08;5.00;;;;;;;6.09;71.96;100096.22;5023716;28;20049;-82
2023/03/15 08:16:23;;;;;;;13.70;4.05;;;;;;;6.10;72.41;100099.69;5026228;28;20481;-82
2023/03/15 08:18:49;;;;;;;11.30;3.55;;;;;;;6.16;72.16;100107.22;4973076;28;20066;-81
2023/03/15 08:21:16;;;;;;;13.88;4.03;;;;;;;6.13;71.72;100107.44;5016700;28;20497;-82
2023/03/15 08:23:43;;;;;;;11.35;3.42;;;;;;;6.04;70.00;100102.75;5031901;28;20045;-82
2023/03/15 08:26:09;;;;;;;11.00;3.20;;;;;;;6.00;69.15;100107.34;5006262;28;20046;-81
2023/03/15 08:28:36;;;;;;;13.50;3.65;;;;;;;5.84;70.26;100110.13;4993960;28;20057;-81
2023/03/15 08:31:09;;;;;;;11.02;2.83;;;;;;;5.82;71.45;100104.09;4999022;28;20049;-82
2023/03/15 08:33:35;;;;;;;15.15;4.35;;;;;;;5.78;71.58;100101.78;5019938;28;20040;-81
2023/03/15 08:36:02;;;;;;;9.35;3.00;;;;;;;5.87;71.22;100101.16;4985452;28;20177;-81
2023/03/15 08:38:29;;;;;;;16.02;4.03;;;;;;;5.81;71.97;100114.75;5012564;28;20059;-81
2023/03/15 08:40:56;;;;;;;21.45;4.10;;;;;;;5.84;72.14;100114.53;5024863;28;20420;-82
2023/03/15 08:43:24;;;;;;;15.63;3.40;;;;;;;5.78;72.68;100118.44;4977810;28;20103;-81
2023/03/15 08:45:51;;;;;;;12.15;3.25;;;;;;;5.80;71.92;100115.69;4992142;28;20041;-82
2023/03/15 08:48:27;;;;;;;10.40;3.20;;;;;;;5.83;72.43;100120.78;4994292;28;20045;-81
2023/03/15 08:50:53;;;;;;;13.07;4.07;;;;;;;5.83;72.44;100118.13;5009422;28;20041;-82
2023/03/15 08:53:20;;;;;;;16.05;3.88;;;;;;;5.88;72.72;100113.41;5006704;28;20045;-82
2023/03/15 08:55:48;;;;;;;14.18;4.28;;;;;;;5.89;73.07;100104.56;4982817;28;20402;-81
2023/03/15 08:58:15;;;;;;;24.95;3.53;;;;;;;5.93;72.34;100107.81;5015267;28;20057;-81
2023/03/15 09:00:42;;;;;;;21.85;3.80;;;;;;;5.98;72.64;100111.03;5004622;28;20044;-81
2023/03/15 09:03:09;;;;;;;15.45;4.43;;;;;;;6.04;72.58;100114.13;4988494;28;20124;-81
2023/03/15 09:05:35;;;;;;;16.25;2.97;;;;;;;6.08;72.22;100123.53;4999868;28;20057;-81
2023/03/15 09:08:03;;;;;;;11.65;3.42;;;;;;;6.17;71.75;100123.88;5023309;28;20393;-81
2023/03/15 09:10:29;;;;;;;17.70;3.45;;;;;;;6.25;71.71;100127.69;4996290;28;20554;-81
2023/03/15 09:12:56;;;;;;;11.38;2.97;;;;;;;6.28;71.20;100124.88;4995400;28;20124;-81
2023/03/15 09:15:23;;;;;;;15.75;3.58;;;;;;;6.25;71.52;100134.75;5012709;28;20501;-81
2023/03/15 09:17:52;;;;;;;16.08;3.42;;;;;;;6.26;71.10;100136.47;4974008;28;20457;-81
2023/03/15 09:20:21;;;;;;;12.13;4.03;;;;;;;6.19;70.79;100138.66;5001742;28;20046;-81
2023/03/15 09:22:50;;;;;;;18.10;3.90;;;;;;;6.08;72.12;100141.13;5008077;28;20095;-82
2023/03/15 09:25:17;;;;;;;13.02;3.50;;;;;;;6.05;71.37;100146.59;4992739;28;20045;-81
2023/03/15 09:27:44;;;;;;;13.32;4.65;;;;;;;6.01;71.71;100148.59;5010372;28;20047;-81
2023/03/15 09:30:12;;;;;;;13.05;3.83;;;;;;;5.94;72.40;100151.75;5024869;28;20042;-82
2023/03/15 09:32:39;;;;;;;19.58;4.18;;;;;;;5.91;72.25;100152.75;5012500;28;20053;-82
2023/03/15 09:35:08;;;;;;;17.73;4.57;;;;;;;5.79;73.72;100164.06;4958029;28;20044;-81
2023/03/15 09:37:35;;;;;;;13.65;4.30;;;;;;;5.73;74.50;100164.47;5010481;28;20048;-82
2023/03/15 09:40:03;;;;;;;15.05;5.05;;;;;;;5.60;75.27;100154.69;5004465;28;20520;-82
2023/03/15 09:42:48;;;;;;;14.38;4.35;;;;;;;5.66;75.10;100161.34;5011879;28;20042;-82
2023/03/15 09:45:28;;;;;;;17.67;4.25;;;;;;;5.51;76.80;100157.88;4984057;28;20045;-82
2023/03/15 09:48:12;;;;;;;13.40;4.65;;;;;;;5.64;76.17;100168.50;4989360;28;20485;-82
2023/03/15 09:50:52;;;;;;;17.15;4.57;;;;;;;5.68;77.39;100156.00;4993373;28;20049;-82
2023/03/15 09:53:31;;;;;;;16.90;5.70;;;;;;;5.62;77.34;100160.72;4985692;28;20439;-82
2023/03/15 09:55:57;;;;;;;14.10;5.65;;;;;;;5.71;76.22;100166.34;5022845;28;20045;-82
2023/03/15 09:58:31;;;;;;;21.13;6.00;;;;;;;5.55;77.14;100180.47;5001602;28;20060;-82
2023/03/15 10:01:04;;;;;;;13.40;4.82;;;;;;;5.50;77.15;100181.72;4997805;28;20581;-82
2023/03/15 10:03:45;;;;;;;;;;;;;;;5.29;78.57;100184.72;4979318;28;20049;-82
2023/03/15 10:06:23;;;;;;;24.90;5.35;;;;;;;5.23;77.27;100187.72;4964136;28;19931;-82
2023/03/15 10:08:56;;;;;;;18.08;5.10;;;;;;;5.27;77.17;100178.69;5018225;28;20049;-82
2023/03/15 10:11:30;;;;;;;15.35;4.72;;;;;;;5.14;78.08;100169.81;4974763;28;20489;-82
2023/03/15 10:14:27;;;;;;;24.80;7.18;;;;;;;5.00;79.88;100182.03;5012915;28;20049;-81
2023/03/15 10:16:53;;;;;;;18.52;5.85;;;;;;;5.12;79.91;100167.31;4947594;28;20495;-82
2023/03/15 10:19:29;;;;;;;13.18;4.60;;;;;;;5.13;79.35;100170.78;4995931;28;20099;-81
2023/03/15 10:22:18;;;;;;;15.15;5.15;;;;;;;5.12;81.71;100172.56;5003187;28;20049;-81
2023/03/15 10:24:46;;;;;;;15.15;4.15;;;;;;;5.26;80.62;100166.44;4983750;28;20042;-82
2023/03/15 10:27:27;;;;;;;17.80;3.65;;;;;;;5.33;81.74;100177.47;5023055;28;20045;-81
2023/03/15 10:29:55;;;;;;;23.33;5.68;;;;;;;5.36;81.14;100180.75;4962605;28;20128;-81
2023/03/15 10:32:28;;;;;;;14.25;4.47;;;;;;;5.38;81.55;100184.13;5010824;28;20044;-82
2023/03/15 10:34:56;;;;;;;12.63;3.97;;;;;;;5.36;78.94;100179.91;4996716;28;20053;-82
2023/03/15 10:37:24;;;;;;;9.60;3.78;;;;;;;5.33;79.58;100186.22;4980490;28;20049;-81
2023/03/15 10:39:56;;;;;;;7.43;3.50;;;;;;;5.22;81.55;100186.03;5024640;28;20476;-81
2023/03/15 10:42:31;;;;;;;10.15;4.18;;;;;;;5.26;81.09;100187.50;5024241;28;20069;-81
2023/03/15 10:44:59;;;;;;;13.02;5.85;;;;;;;5.28;80.89;100190.91;5008153;28;20049;-81
2023/03/15 10:47:26;;;;;;;12.50;4.47;;;;;;;5.37;80.63;100197.41;5001888;28;20045;-81
2023/03/15 10:49:58;;;;;;;11.15;4.28;;;;;;;5.37;80.82;100190.34;5012400;28;20082;-82
2023/03/15 10:52:39;;;;;;;14.05;3.85;;;;;;;5.46;80.87;100191.56;4980285;28;20054;-81
2023/03/15 10:55:19;;;;;;;14.13;4.97;;;;;;;5.48;81.06;100188.84;4978501;28;20492;-81
2023/03/15 10:57:58;;;;;;;11.13;4.18;;;;;;;5.52;80.34;100190.34;4971444;28;20124;-82
2023/03/15 11:00:31;;;;;;;6.30;3.60;;;;;;;5.55;79.57;100184.91;4980728;28;20103;-81
2023/03/15 11:03:00;;;;;;;12.60;4.57;;;;;;;5.58;79.83;100180.28;4975849;28;20059;-82
2023/03/15 11:05:38;;;;;;;12.40;4.40;;;;;;;5.65;79.90;100175.50;5003306;28;20041;-81
2023/03/15 11:08:11;;;;;;;13.40;4.18;;;;;;;5.73;80.28;100177.63;5007270;28;20439;-81
2023/03/15 11:10:37;;;;;;;18.40;5.65;;;;;;;5.82;79.46;100174.41;4970916;28;20057;-81
2023/03/15 11:13:11;;;;;;;16.90;4.70;;;;;;;5.88;80.58;100176.66;4988737;28;20041;-81
2023/03/15 11:15:40;;;;;;;15.50;4.65;;;;;;;5.96;79.86;100174.41;5010545;28;20048;-81
2023/03/15 11:18:16;;;;;;;10.13;4.50;;;;;;;5.99;80.45;100176.84;5009594;28;20045;-81
2023/03/15 11:20:44;;;;;;;16.17;4.55;;;;;;;6.05;80.24;100172.97;4967021;28;20046;-81
2023/03/15 11:23:24;;;;;;;12.68;4.70;;;;;;;6.02;80.45;100171.38;5002472;28;20091;-82
2023/03/15 11:25:52;;;;;;;16.60;3.92;;;;;;;6.14;79.02;100172.38;5005749;28;20069;-82
2023/03/15 11:28:28;;;;;;;12.70;3.97;;;;;;;6.11;78.82;100183.13;5011295;28;20045;-82
2023/03/15 11:30:59;;;;;;;13.10;4.15;;;;;;;6.03;79.92;100174.84;4969757;28;20108;-81
2023/03/15 11:33:47;;;;;;;14.43;4.53;;;;;;;6.01;80.33;100179.41;4995781;28;20069;-82
2023/03/15 11:36:20;;;;;;;21.05;5.40;;;;;;;5.99;79.63;100176.84;4946865;28;20376;-81
2023/03/15 11:38:47;;;;;;;14.23;4.35;;;;;;;6.00;79.29;100181.16;5021655;28;20053;-81
2023/03/15 11:41:19;;;;;;;19.83;5.63;;;;;;;5.98;79.31;100180.44;5009924;28;20477;-81
2023/03/15 11:43:55;;;;;;;17.00;5.50;;;;;;;5.94;80.04;100175.47;5008329;28;20041;-81
2023/03/15 11:46:47;;;;;;;10.95;4.15;;;;;;;5.92;80.43;100177.31;5014162;28;20089;-81
2023/03/15 11:49:22;;;;;;;12.85;4.57;;;;;;;5.97;79.49;100183.16;4918867;28;20473;-81
2023/03/15 11:51:49;;;;;;;16.60;5.00;;;;;;;5.96;79.83;100179.69;4994221;28;20041;-82
2023/03/15 11:54:17;;;;;;;15.68;5.05;;;;;;;5.95;79.39;100183.25;4995057;28;20041;-81